Hovedside
METAR-TAF:

METAR-TAF

Lufthavner :

Tokyo-Haneda, Japan

breddegrad: 35-33N, lengdegrad: 139-47E, høyde over havet: 5 m

Gjeldene værobservasjon

Denne rapporten ble laget for 17 minutter siden, klokken 04:00 UTC
Vind 7 kt fra Nord-nordøst
Temperatur 21°C
Luftfuktighet 69%
Trykk 1013 hPa
Sikt 10 km eller mer
Få skyer i en høyde av 2000 ft
Brutte skyer

METAR: RJTT 240400Z 02007KT 9999 FEW020 BKN/// 21/15 Q1013 BECMG 08006KT RMK 1CU020 A2992

Tid: 13:17 (04:17 UTC)

Varsel

Denne rapporten ble laget for 5 timer og 12 minutter siden, klokken 23:05 UTC
Varsel gyldig fra 24. klokken 00 UTC til 25. klokken 06 UTC
Vind 10 kt fra Nord
Sikt 10 km eller mer
Få skyer i en høyde av 2000 ft

TAF: RJTT 232305Z 2400/2506 36010KT 9999 FEW020

Værobservasjoner og værvarsel for over 4000 flyplasser (METAR- og TAF-rapporter).

Tilgjengelige stasjoner er representert av de røde og gule prikkene på kartet.

Hold musepekeren over prikken for å se navnet på stasjonen.

Klikk så for å se værobservasjoner og -varsler.

For å forandre kartet kan du klikke på den grønne knappen med svart kryss for å zoome inn, på den grønne knappen med strek for å zoome ut, eller på de grønne pilene for å se tilstøtende kart.


METAR-TAF: